createdAt,value
2018-07-24T00:01:41.231Z,14.00
2018-07-24T00:04:11.960Z,14.33
2018-07-24T00:06:44.014Z,14.60
2018-07-24T00:09:14.808Z,13.63
2018-07-24T00:11:44.879Z,14.33
2018-07-24T00:14:14.537Z,14.17
2018-07-24T00:16:46.257Z,13.83
2018-07-24T00:19:29.419Z,14.13
2018-07-24T00:21:59.966Z,13.60
2018-07-24T00:24:29.842Z,14.20
2018-07-24T00:26:59.916Z,14.23
2018-07-24T00:29:35.965Z,14.27
2018-07-24T00:32:06.688Z,14.30
2018-07-24T00:34:43.075Z,14.10
2018-07-24T00:37:13.149Z,13.90
2018-07-24T00:39:55.678Z,15.10
2018-07-24T00:42:25.641Z,15.30
2018-07-24T00:44:57.686Z,15.20
2018-07-24T00:47:27.825Z,15.90
2018-07-24T00:49:57.464Z,15.27
2018-07-24T00:52:28.950Z,16.10
2018-07-24T00:54:58.474Z,17.03
2018-07-24T00:57:34.896Z,15.73
2018-07-24T01:00:05.312Z,16.37
2018-07-24T01:02:34.917Z,16.10
2018-07-24T01:05:11.506Z,16.17
2018-07-24T01:07:41.511Z,16.70
2018-07-24T01:10:12.073Z,16.77
2018-07-24T01:12:46.107Z,16.03
2018-07-24T01:15:15.709Z,16.00
2018-07-24T01:17:45.661Z,14.80
2018-07-24T01:20:23.108Z,15.00
2018-07-24T01:22:52.094Z,15.07
2018-07-24T01:25:21.641Z,15.70
2018-07-24T01:27:51.362Z,15.50
2018-07-24T01:30:20.994Z,14.87
2018-07-24T01:32:51.305Z,16.47
2018-07-24T01:35:25.528Z,15.03
2018-07-24T01:37:55.176Z,16.00
2018-07-24T01:40:25.077Z,15.73
2018-07-24T01:42:54.902Z,15.33
2018-07-24T01:45:24.462Z,15.80
2018-07-24T01:48:08.917Z,14.87
2018-07-24T01:50:38.548Z,15.67
2018-07-24T01:53:08.440Z,14.60
2018-07-24T01:55:44.717Z,15.33
2018-07-24T01:58:19.341Z,15.13
2018-07-24T02:00:50.245Z,15.93
2018-07-24T02:03:19.891Z,15.70
2018-07-24T02:05:49.474Z,15.10
2018-07-24T02:08:19.468Z,15.70
2018-07-24T02:10:49.062Z,15.93
2018-07-24T02:13:18.618Z,14.80
2018-07-24T02:15:48.572Z,16.47
2018-07-24T02:18:33.201Z,15.77
2018-07-24T02:21:03.097Z,15.70
2018-07-24T02:23:32.680Z,16.00
2018-07-24T02:26:02.567Z,15.20
2018-07-24T02:28:32.584Z,15.27
2018-07-24T02:31:02.115Z,15.83
2018-07-24T02:33:47.552Z,14.73
2018-07-24T02:36:17.593Z,15.90
2018-07-24T02:38:59.513Z,14.67
2018-07-24T02:41:29.370Z,14.77
2018-07-24T02:44:07.904Z,15.53
2018-07-24T02:46:37.706Z,15.13
2018-07-24T02:49:12.905Z,15.40
2018-07-24T02:51:42.766Z,15.90
2018-07-24T02:54:12.262Z,15.50
2018-07-24T02:56:41.827Z,14.97
2018-07-24T02:59:11.679Z,13.63
2018-07-24T03:01:41.199Z,14.33
2018-07-24T03:04:10.762Z,14.30
2018-07-24T03:06:40.559Z,15.33
2018-07-24T03:09:11.531Z,14.80
2018-07-24T03:11:41.224Z,14.67
2018-07-24T03:14:11.071Z,15.27
2018-07-24T03:16:40.007Z,15.63
2018-07-24T03:19:09.546Z,15.43
2018-07-24T03:21:52.753Z,15.67
2018-07-24T03:24:22.276Z,15.53
2018-07-24T03:26:52.151Z,15.10
2018-07-24T03:29:21.663Z,14.70
2018-07-24T03:31:51.199Z,16.27
2018-07-24T03:34:21.076Z,15.73
2018-07-24T03:36:55.874Z,15.10
2018-07-24T03:39:25.436Z,16.00
2018-07-24T03:41:55.264Z,15.50
2018-07-24T03:44:24.950Z,17.03
2018-07-24T03:46:54.473Z,15.70
2018-07-24T03:49:24.289Z,15.30
2018-07-24T03:51:58.313Z,15.60
2018-07-24T03:54:34.681Z,15.40
2018-07-24T03:57:09.099Z,16.23
2018-07-24T03:59:45.449Z,15.17
2018-07-24T04:02:19.892Z,15.70
2018-07-24T04:04:49.463Z,14.60
2018-07-24T04:07:18.984Z,14.90
2018-07-24T04:09:48.511Z,15.37
2018-07-24T04:12:18.334Z,15.10
2018-07-24T04:14:47.824Z,15.00
2018-07-24T04:17:17.326Z,14.03
2018-07-24T04:19:46.817Z,14.77
2018-07-24T04:22:16.653Z,16.40
2018-07-24T04:24:58.121Z,15.20
2018-07-24T04:27:35.218Z,16.43
2018-07-24T04:30:05.545Z,16.60
2018-07-24T04:32:35.371Z,15.90
2018-07-24T04:35:05.039Z,16.20
2018-07-24T04:37:34.564Z,17.30
2018-07-24T04:40:04.561Z,16.80
2018-07-24T04:42:34.029Z,16.97
2018-07-24T04:45:03.606Z,17.13
2018-07-24T04:47:33.614Z,16.00
2018-07-24T04:50:03.143Z,16.37
2018-07-24T04:52:32.779Z,16.93
2018-07-24T04:55:10.161Z,17.33
2018-07-24T04:57:44.159Z,16.97
2018-07-24T05:00:14.055Z,16.73
2018-07-24T05:02:43.611Z,15.87
2018-07-24T05:05:13.209Z,17.53
2018-07-24T05:07:43.191Z,17.10
2018-07-24T05:10:12.722Z,16.60
2018-07-24T05:12:42.607Z,18.83
2018-07-24T05:15:12.553Z,17.00
2018-07-24T05:17:42.164Z,17.73
2018-07-24T05:20:11.894Z,17.80
2018-07-24T05:22:41.742Z,17.33
2018-07-24T05:25:11.468Z,18.00
2018-07-24T05:27:41.182Z,17.80
2018-07-24T05:30:11.227Z,17.60
2018-07-24T05:32:40.875Z,19.17
2018-07-24T05:35:10.475Z,17.33
2018-07-24T05:37:40.067Z,16.57
2018-07-24T05:40:09.687Z,18.83
2018-07-24T05:42:38.654Z,18.07
2018-07-24T05:45:08.914Z,16.80
2018-07-24T05:47:38.475Z,17.20
2018-07-24T05:50:08.690Z,16.60
2018-07-24T05:52:38.632Z,17.47
2018-07-24T05:55:08.238Z,17.43
2018-07-24T05:57:37.786Z,17.17
2018-07-24T06:00:07.963Z,16.50
2018-07-24T06:02:37.590Z,17.73
2018-07-24T06:05:07.407Z,16.33
2018-07-24T06:07:37.272Z,17.47
2018-07-24T06:10:06.903Z,16.00
2018-07-24T06:12:36.540Z,17.63
2018-07-24T06:15:07.878Z,17.53
2018-07-24T06:17:37.566Z,16.50
2018-07-24T06:20:08.932Z,16.87
2018-07-24T06:22:38.843Z,16.33
2018-07-24T06:25:08.756Z,16.70
2018-07-24T06:27:38.367Z,16.30
2018-07-24T06:30:15.658Z,16.13
2018-07-24T06:32:50.627Z,15.70
2018-07-24T06:35:20.492Z,16.43
2018-07-24T06:37:56.183Z,15.87
2018-07-24T06:40:33.261Z,17.40
2018-07-24T06:43:03.036Z,16.13
2018-07-24T06:45:33.005Z,16.80
2018-07-24T06:48:02.673Z,16.20
2018-07-24T06:50:32.316Z,16.30
2018-07-24T06:53:02.296Z,16.40
2018-07-24T06:55:32.024Z,14.90
2018-07-24T06:58:01.887Z,15.77
2018-07-24T07:00:31.762Z,14.90
2018-07-24T07:03:01.556Z,14.77
2018-07-24T07:05:31.207Z,15.93
2018-07-24T07:08:06.732Z,14.80
2018-07-24T07:10:36.463Z,14.80
2018-07-24T07:13:06.293Z,16.17
2018-07-24T07:15:37.092Z,15.43
2018-07-24T07:18:06.766Z,15.37
2018-07-24T07:20:36.343Z,14.70
2018-07-24T07:23:13.437Z,15.10
2018-07-24T07:25:43.192Z,14.43
2018-07-24T07:28:13.465Z,15.37
2018-07-24T07:30:43.379Z,14.37
2018-07-24T07:33:12.984Z,13.47
2018-07-24T07:35:43.031Z,13.67
2018-07-24T07:38:21.879Z,13.63
2018-07-24T07:42:10.875Z,13.73
2018-07-24T07:44:40.628Z,12.83
2018-07-24T07:47:10.624Z,11.67
2018-07-24T07:49:40.318Z,12.10
2018-07-24T07:52:09.862Z,12.60
2018-07-24T07:54:39.938Z,17.00
2018-07-24T07:57:09.612Z,12.20
2018-07-24T07:59:39.403Z,17.70
2018-07-24T08:02:09.647Z,12.50
2018-07-24T08:04:39.436Z,10.90
2018-07-24T08:07:08.988Z,11.57
2018-07-24T08:09:39.085Z,11.23
2018-07-24T08:12:08.645Z,11.47
2018-07-24T08:14:38.348Z,11.30
2018-07-24T08:17:08.293Z,10.87
2018-07-24T08:19:38.681Z,10.80
2018-07-24T08:22:08.532Z,10.67
2018-07-24T08:24:38.849Z,11.30
2018-07-24T08:27:09.189Z,10.07
2018-07-24T08:29:39.142Z,10.50
2018-07-24T08:32:09.841Z,10.17
2018-07-24T08:34:45.328Z,11.67
2018-07-24T08:37:15.262Z,10.37
2018-07-24T08:39:45.290Z,10.27
2018-07-24T08:42:22.230Z,9.97
2018-07-24T08:44:57.601Z,10.40
2018-07-24T08:47:27.501Z,10.83
2018-07-24T08:49:57.420Z,10.27
2018-07-24T08:52:37.869Z,9.43
2018-07-24T08:55:08.271Z,9.73
2018-07-24T08:57:37.935Z,9.57
2018-07-24T09:00:09.459Z,10.57
2018-07-24T09:02:39.602Z,9.93
2018-07-24T09:05:09.525Z,10.67
2018-07-24T09:07:39.501Z,10.33
2018-07-24T09:10:11.535Z,9.10
2018-07-24T09:12:41.286Z,9.60
2018-07-24T09:15:17.680Z,8.93
2018-07-24T09:17:47.815Z,10.20
2018-07-24T09:20:17.597Z,9.40
2018-07-24T09:22:47.461Z,9.80
2018-07-24T09:25:17.500Z,8.33
2018-07-24T09:27:47.698Z,9.67
2018-07-24T09:30:17.589Z,9.20
2018-07-24T09:32:47.560Z,9.03
2018-07-24T09:35:18.130Z,9.20
2018-07-24T09:37:47.845Z,8.70
2018-07-24T09:40:18.054Z,8.63
2018-07-24T09:42:47.780Z,7.90
2018-07-24T09:45:17.670Z,8.17
2018-07-24T09:47:47.965Z,8.47
2018-07-24T09:50:17.660Z,7.97
2018-07-24T09:52:47.411Z,8.27
2018-07-24T09:55:17.618Z,8.30
2018-07-24T09:57:55.269Z,8.03
2018-07-24T10:00:31.022Z,8.07
2018-07-24T10:03:00.700Z,7.90
2018-07-24T10:05:30.473Z,7.83
2018-07-24T10:08:00.654Z,8.87
